createdAt,value
2023-03-26T00:00:17.759Z,90.68
2023-03-26T00:01:17.738Z,90.78
2023-03-26T00:02:17.752Z,90.89
2023-03-26T00:03:17.742Z,91.09
2023-03-26T00:04:17.698Z,91.09
2023-03-26T00:05:17.780Z,90.89
2023-03-26T00:06:17.673Z,90.72
2023-03-26T00:07:17.657Z,90.72
2023-03-26T00:08:17.659Z,90.83
2023-03-26T00:09:17.657Z,91.03
2023-03-26T00:10:17.627Z,91.39
2023-03-26T00:11:17.609Z,91.49
2023-03-26T00:12:17.602Z,91.60
2023-03-26T00:13:17.596Z,91.80
2023-03-26T00:14:17.630Z,91.80
2023-03-26T00:15:17.590Z,91.64
2023-03-26T00:16:17.567Z,91.74
2023-03-26T00:17:17.538Z,92.16
2023-03-26T00:18:17.518Z,92.61
2023-03-26T00:19:17.509Z,92.82
2023-03-26T00:20:17.489Z,93.02
2023-03-26T00:21:17.517Z,93.23
2023-03-26T00:22:17.464Z,93.44
2023-03-26T00:23:17.463Z,93.85
2023-03-26T00:24:17.490Z,93.85
2023-03-26T00:25:17.450Z,93.85
2023-03-26T00:26:17.423Z,93.96
2023-03-26T00:27:17.401Z,94.06
2023-03-26T00:28:17.405Z,94.06
2023-03-26T00:29:17.383Z,93.96
2023-03-26T00:30:17.364Z,94.06
2023-03-26T00:31:17.461Z,94.17
2023-03-26T00:32:17.346Z,94.37
2023-03-26T00:33:17.334Z,94.33
2023-03-26T00:34:17.325Z,94.27
2023-03-26T00:35:17.299Z,94.17
2023-03-26T00:36:17.329Z,94.17
2023-03-26T00:37:17.312Z,94.06
2023-03-26T00:38:17.261Z,93.96
2023-03-26T00:39:17.258Z,93.81
2023-03-26T00:40:17.246Z,93.65
2023-03-26T00:41:17.234Z,93.60
2023-03-26T00:42:17.225Z,93.81
2023-03-26T00:43:17.208Z,93.91
2023-03-26T00:44:17.189Z,93.81
2023-03-26T00:45:17.183Z,94.02
2023-03-26T00:46:17.470Z,94.12
2023-03-26T00:47:17.161Z,94.12
2023-03-26T00:48:17.147Z,94.12
2023-03-26T00:49:17.131Z,94.18
2023-03-26T00:50:17.123Z,94.23
2023-03-26T00:51:17.110Z,94.12
2023-03-26T00:52:17.088Z,94.02
2023-03-26T00:53:17.114Z,94.02
2023-03-26T00:54:17.068Z,93.91
2023-03-26T00:55:17.072Z,93.91
2023-03-26T00:56:17.049Z,94.12
2023-03-26T00:57:28.897Z,94.12
2023-03-26T00:58:18.055Z,94.12
2023-03-26T00:59:17.044Z,94.12
2023-03-26T01:00:17.130Z,94.12
2023-03-26T01:01:17.036Z,93.91
2023-03-26T01:02:17.016Z,93.71
2023-03-26T01:03:27.462Z,93.81
2023-03-26T01:04:18.200Z,94.12
2023-03-26T01:05:16.974Z,94.23
2023-03-26T01:06:16.915Z,94.33
2023-03-26T01:07:16.893Z,94.43
2023-03-26T01:08:16.882Z,94.43
2023-03-26T01:09:16.898Z,94.43
2023-03-26T01:10:16.849Z,94.64
2023-03-26T01:11:16.843Z,94.85
2023-03-26T01:12:16.842Z,94.74
2023-03-26T01:13:16.812Z,94.74
2023-03-26T01:14:16.806Z,94.33
2023-03-26T01:15:16.811Z,94.27
2023-03-26T01:16:16.825Z,94.37
2023-03-26T01:17:16.771Z,94.48
2023-03-26T01:18:16.764Z,94.68
2023-03-26T01:19:16.749Z,94.79
2023-03-26T01:20:16.731Z,94.79
2023-03-26T01:21:16.709Z,95.00
2023-03-26T01:22:16.702Z,95.20
2023-03-26T01:23:16.699Z,95.00
2023-03-26T01:24:16.685Z,95.10
2023-03-26T01:25:16.797Z,95.06
2023-03-26T01:26:16.656Z,94.95
2023-03-26T01:27:16.645Z,95.00
2023-03-26T01:28:16.620Z,95.10
2023-03-26T01:29:16.624Z,95.00
2023-03-26T01:30:16.605Z,95.00
2023-03-26T01:31:16.585Z,95.00
2023-03-26T01:32:16.635Z,95.10
2023-03-26T01:33:16.637Z,95.20
2023-03-26T01:34:16.553Z,95.20
2023-03-26T01:35:16.543Z,95.31
2023-03-26T01:36:16.526Z,95.31
2023-03-26T01:37:16.513Z,95.31
2023-03-26T01:38:16.498Z,95.41
2023-03-26T01:39:16.488Z,95.31
2023-03-26T01:40:16.463Z,95.20
2023-03-26T01:41:16.545Z,95.31
2023-03-26T01:42:16.437Z,95.41
2023-03-26T01:43:16.442Z,95.41
2023-03-26T01:44:16.414Z,95.41
2023-03-26T01:45:16.408Z,95.31
2023-03-26T01:46:16.400Z,95.31
2023-03-26T01:47:16.386Z,95.41
2023-03-26T01:48:16.357Z,95.31
2023-03-26T01:49:16.370Z,95.51
2023-03-26T01:50:16.346Z,95.51
2023-03-26T01:51:16.330Z,95.62
2023-03-26T01:52:16.332Z,95.72
2023-03-26T01:53:16.313Z,95.83
2023-03-26T01:54:16.304Z,95.93
2023-03-26T01:55:16.295Z,95.93
2023-03-26T01:56:16.259Z,96.03
2023-03-26T01:57:16.288Z,95.93
2023-03-26T01:58:16.245Z,95.83
2023-03-26T01:59:16.224Z,95.72
2023-03-26T02:00:16.223Z,95.72
2023-03-26T02:01:16.239Z,95.83
2023-03-26T02:02:16.254Z,95.93
2023-03-26T02:03:16.340Z,95.93
2023-03-26T02:04:16.170Z,96.03
2023-03-26T02:05:16.159Z,95.93
2023-03-26T02:06:16.139Z,95.83
2023-03-26T02:07:16.117Z,96.03
2023-03-26T02:08:16.151Z,96.09
2023-03-26T02:09:16.107Z,96.20
2023-03-26T02:10:16.101Z,95.99
2023-03-26T02:11:16.608Z,95.68
2023-03-26T02:12:16.065Z,95.41
2023-03-26T02:13:16.079Z,95.20
2023-03-26T02:14:16.037Z,95.20
2023-03-26T02:15:16.022Z,95.31
2023-03-26T02:16:16.012Z,95.46
2023-03-26T02:17:15.990Z,95.77
2023-03-26T02:18:15.981Z,95.87
2023-03-26T02:19:16.239Z,95.77
2023-03-26T02:20:15.948Z,95.67
2023-03-26T02:21:15.934Z,96.08
2023-03-26T02:22:16.081Z,96.29
2023-03-26T02:23:15.920Z,96.29
2023-03-26T02:24:15.908Z,96.50
2023-03-26T02:25:15.889Z,96.66
2023-03-26T02:26:15.885Z,96.86
2023-03-26T02:27:15.861Z,96.86
2023-03-26T02:28:15.855Z,96.76
2023-03-26T02:29:15.867Z,96.66
2023-03-26T02:30:15.830Z,96.76
2023-03-26T02:31:15.847Z,96.86
2023-03-26T02:32:15.804Z,96.86
2023-03-26T02:33:15.782Z,96.82
2023-03-26T02:34:15.782Z,96.92
2023-03-26T02:35:15.853Z,96.82
2023-03-26T02:36:15.805Z,96.72
2023-03-26T02:37:15.734Z,96.61
2023-03-26T02:38:15.756Z,96.61
2023-03-26T02:39:15.706Z,96.61
2023-03-26T02:40:15.695Z,96.47
2023-03-26T02:41:15.679Z,96.47
2023-03-26T02:42:15.686Z,96.47
2023-03-26T02:43:15.656Z,96.36
2023-03-26T02:44:15.648Z,96.26
2023-03-26T02:45:15.658Z,96.26
2023-03-26T02:46:15.652Z,96.20
2023-03-26T02:47:15.609Z,96.20
2023-03-26T02:48:15.596Z,96.20
2023-03-26T02:49:15.584Z,96.20
2023-03-26T02:50:15.579Z,96.20
2023-03-26T02:51:15.550Z,96.14
2023-03-26T02:52:15.536Z,96.03
2023-03-26T02:53:15.524Z,96.24
2023-03-26T02:54:15.520Z,96.24
2023-03-26T02:55:15.503Z,96.34
2023-03-26T02:56:15.486Z,96.55
2023-03-26T02:57:15.522Z,96.55
2023-03-26T02:58:15.459Z,96.66
2023-03-26T02:59:15.452Z,96.55
2023-03-26T03:00:15.468Z,96.45
2023-03-26T03:01:15.498Z,96.34
2023-03-26T03:02:15.454Z,96.55
2023-03-26T03:03:15.414Z,96.55
2023-03-26T03:04:15.396Z,96.66
2023-03-26T03:05:15.390Z,96.76
2023-03-26T03:06:15.366Z,96.86
2023-03-26T03:07:15.346Z,97.07
2023-03-26T03:08:15.333Z,97.13
2023-03-26T03:09:15.339Z,97.03
2023-03-26T03:10:15.320Z,97.03
2023-03-26T03:11:15.302Z,96.92
2023-03-26T03:12:15.288Z,96.92
2023-03-26T03:13:15.270Z,96.92
2023-03-26T03:14:15.260Z,96.92
2023-03-26T03:15:15.241Z,96.82
2023-03-26T03:16:15.254Z,96.72
2023-03-26T03:17:15.244Z,96.61
2023-03-26T03:18:15.205Z,96.41
2023-03-26T03:19:15.203Z,96.20
2023-03-26T03:20:15.180Z,96.20
2023-03-26T03:21:15.176Z,96.20
2023-03-26T03:22:15.158Z,96.30
2023-03-26T03:23:15.152Z,96.41
2023-03-26T03:24:15.134Z,96.51
2023-03-26T03:25:15.131Z,96.61
2023-03-26T03:26:15.105Z,96.61
2023-03-26T03:27:15.103Z,96.61
2023-03-26T03:28:15.088Z,96.61
2023-03-26T03:29:15.072Z,96.51
2023-03-26T03:30:15.060Z,96.51
2023-03-26T03:31:15.091Z,96.51
2023-03-26T03:32:15.038Z,96.61
2023-03-26T03:33:15.049Z,96.61
2023-03-26T03:34:15.015Z,96.61
2023-03-26T03:35:14.998Z,96.72
2023-03-26T03:36:20.552Z,96.72
2023-03-26T03:37:16.002Z,96.72
2023-03-26T03:38:14.955Z,96.82
2023-03-26T03:39:14.946Z,96.82
2023-03-26T03:40:14.937Z,97.03
2023-03-26T03:41:14.928Z,97.03
2023-03-26T03:42:14.930Z,97.03
2023-03-26T03:43:14.894Z,97.13
2023-03-26T03:44:14.885Z,96.92
2023-03-26T03:45:14.885Z,96.82
2023-03-26T03:46:14.904Z,96.92
2023-03-26T03:47:14.842Z,97.03
2023-03-26T03:48:14.835Z,97.09
2023-03-26T03:49:14.853Z,97.13
2023-03-26T03:50:14.806Z,96.98
2023-03-26T03:51:14.790Z,96.98
2023-03-26T03:52:14.780Z,97.09
2023-03-26T03:53:14.778Z,97.09
2023-03-26T03:54:14.758Z,97.19
2023-03-26T03:55:14.752Z,97.34
2023-03-26T03:56:14.782Z,97.39
2023-03-26T03:57:14.724Z,97.39
2023-03-26T03:58:14.716Z,97.55
2023-03-26T03:59:14.697Z,97.44
2023-03-26T04:00:14.681Z,97.44
2023-03-26T04:01:14.675Z,97.55
2023-03-26T04:02:14.672Z,97.75
2023-03-26T04:03:14.750Z,97.75
2023-03-26T04:04:14.659Z,97.86
2023-03-26T04:05:14.662Z,97.81
2023-03-26T04:06:14.623Z,97.86
2023-03-26T04:07:14.587Z,97.71
2023-03-26T04:08:14.583Z,97.75
2023-03-26T04:09:14.569Z,97.81
2023-03-26T04:10:14.559Z,97.91
2023-03-26T04:11:14.556Z,98.02
2023-03-26T04:12:14.526Z,98.22
2023-03-26T04:13:14.515Z,98.22
2023-03-26T04:14:14.503Z,98.33
2023-03-26T04:15:14.509Z,98.33
2023-03-26T04:16:14.515Z,98.33
2023-03-26T04:17:14.475Z,98.33
2023-03-26T04:18:14.465Z,98.33
2023-03-26T04:19:14.449Z,98.22
2023-03-26T04:20:14.420Z,98.22
2023-03-26T04:21:14.542Z,98.33
2023-03-26T04:22:14.404Z,98.33
2023-03-26T04:23:14.386Z,98.43
2023-03-26T04:24:14.378Z,98.64
2023-03-26T04:25:14.358Z,98.74
2023-03-26T04:26:14.353Z,98.85
2023-03-26T04:27:14.329Z,98.74
2023-03-26T04:28:14.317Z,98.85
2023-03-26T04:29:14.312Z,98.85
2023-03-26T04:30:14.290Z,99.05
2023-03-26T04:31:14.314Z,99.05
2023-03-26T04:32:14.286Z,99.01
2023-03-26T04:33:14.255Z,99.01
2023-03-26T04:34:14.276Z,99.01
2023-03-26T04:35:14.237Z,98.91
2023-03-26T04:36:14.216Z,99.01
2023-03-26T04:37:14.236Z,99.05
2023-03-26T04:38:14.199Z,99.16
2023-03-26T04:39:14.186Z,99.26
2023-03-26T04:40:14.173Z,99.37
2023-03-26T04:41:14.197Z,99.57
2023-03-26T04:42:14.139Z,99.68
2023-03-26T04:43:14.141Z,99.88
2023-03-26T04:44:14.124Z,99.99
2023-03-26T04:45:14.102Z,99.99
2023-03-26T04:46:14.154Z,99.99
2023-03-26T04:47:14.088Z,99.99
2023-03-26T04:48:14.064Z,99.99
2023-03-26T04:49:14.056Z,99.99
2023-03-26T04:50:14.039Z,99.99
2023-03-26T04:51:14.035Z,99.99
2023-03-26T04:52:14.012Z,99.99
2023-03-26T04:53:14.041Z,99.99
2023-03-26T04:54:14.001Z,99.99
2023-03-26T04:55:13.974Z,99.99
2023-03-26T04:56:13.958Z,99.99
2023-03-26T04:57:13.980Z,99.99
2023-03-26T04:58:14.004Z,99.99
2023-03-26T04:59:13.923Z,99.99
2023-03-26T05:00:13.920Z,99.99
2023-03-26T05:01:13.999Z,99.99
2023-03-26T05:02:13.892Z,99.99
2023-03-26T05:03:13.875Z,99.99
2023-03-26T05:04:13.878Z,99.99
2023-03-26T05:05:13.857Z,99.99
2023-03-26T05:06:13.840Z,99.99
2023-03-26T05:07:13.821Z,99.99
2023-03-26T05:08:13.809Z,99.99
2023-03-26T05:09:13.832Z,99.90
2023-03-26T05:10:13.782Z,99.90
2023-03-26T05:11:13.777Z,99.90
2023-03-26T05:12:13.771Z,99.90
2023-03-26T05:13:13.763Z,99.99
2023-03-26T05:14:13.732Z,99.99
2023-03-26T05:15:13.759Z,99.99
2023-03-26T05:16:13.750Z,99.99
2023-03-26T05:17:13.707Z,99.99
2023-03-26T05:18:13.693Z,99.99
2023-03-26T05:19:13.671Z,99.99
2023-03-26T05:20:13.661Z,99.99
2023-03-26T05:21:13.647Z,99.99
2023-03-26T05:22:13.636Z,99.99
2023-03-26T05:23:13.622Z,99.99
2023-03-26T05:24:13.614Z,99.99
2023-03-26T05:25:13.609Z,99.99
2023-03-26T05:26:13.578Z,99.99
2023-03-26T05:27:13.562Z,99.99
2023-03-26T05:28:13.552Z,99.99
2023-03-26T05:29:13.545Z,99.99
2023-03-26T05:30:13.534Z,99.99
2023-03-26T05:31:13.519Z,99.99
2023-03-26T05:32:13.505Z,99.99
2023-03-26T05:33:13.560Z,99.99
2023-03-26T05:34:13.501Z,99.99
2023-03-26T05:35:13.470Z,99.99
2023-03-26T05:36:13.527Z,99.99
2023-03-26T05:37:13.437Z,99.99
2023-03-26T05:38:13.431Z,99.99
2023-03-26T05:39:13.412Z,99.99
2023-03-26T05:40:13.407Z,99.99
2023-03-26T05:41:13.466Z,99.99
2023-03-26T05:42:13.383Z,99.99
2023-03-26T05:43:13.358Z,99.99
2023-03-26T05:44:13.348Z,99.99
2023-03-26T05:45:13.340Z,99.99
2023-03-26T05:46:13.372Z,99.99
2023-03-26T05:47:13.321Z,99.99
2023-03-26T05:48:13.298Z,99.99
2023-03-26T05:49:13.293Z,99.99
2023-03-26T05:50:13.278Z,99.99
2023-03-26T05:51:13.263Z,99.99
2023-03-26T05:52:13.247Z,99.99
2023-03-26T05:53:13.240Z,99.99
2023-03-26T05:54:13.219Z,99.99
2023-03-26T05:55:13.216Z,99.99
2023-03-26T05:56:13.195Z,99.99
2023-03-26T05:57:13.284Z,99.99
2023-03-26T05:58:13.185Z,99.99
2023-03-26T05:59:13.162Z,99.99
2023-03-26T06:00:13.150Z,99.99
2023-03-26T06:01:13.131Z,99.99
2023-03-26T06:02:13.125Z,99.99
2023-03-26T06:03:13.320Z,99.99
2023-03-26T06:04:13.230Z,99.99
2023-03-26T06:05:13.076Z,99.99
2023-03-26T06:06:13.073Z,99.99
2023-03-26T06:07:13.081Z,99.99
2023-03-26T06:08:13.072Z,99.99
2023-03-26T06:09:13.035Z,99.99
2023-03-26T06:10:17.998Z,99.99
2023-03-26T06:11:13.025Z,99.99
2023-03-26T06:12:12.999Z,99.99
2023-03-26T06:13:13.006Z,99.99
2023-03-26T06:14:12.976Z,99.99
2023-03-26T06:15:12.960Z,99.99
2023-03-26T06:16:25.884Z,99.99
2023-03-26T06:17:13.982Z,99.99
2023-03-26T06:18:12.958Z,99.99
2023-03-26T06:19:12.935Z,99.99
2023-03-26T06:20:12.893Z,99.99
2023-03-26T06:21:12.881Z,99.99
2023-03-26T06:22:12.863Z,99.99
2023-03-26T06:23:12.863Z,99.99
2023-03-26T06:24:12.846Z,99.99
2023-03-26T06:25:12.851Z,99.99
2023-03-26T06:26:12.816Z,99.99
2023-03-26T06:27:12.809Z,99.99
2023-03-26T06:28:12.794Z,99.99
2023-03-26T06:29:12.796Z,99.99
2023-03-26T06:30:12.774Z,99.99
2023-03-26T06:31:12.837Z,99.99
2023-03-26T06:32:19.710Z,99.99
2023-03-26T06:33:13.749Z,99.99
2023-03-26T06:34:12.719Z,99.99
2023-03-26T06:35:12.704Z,99.99
2023-03-26T06:36:12.766Z,99.99
2023-03-26T06:37:12.669Z,99.99
2023-03-26T06:38:12.670Z,99.99
2023-03-26T06:39:12.649Z,99.99
2023-03-26T06:40:13.666Z,99.99
2023-03-26T06:41:12.626Z,99.99
2023-03-26T06:42:12.619Z,99.99
2023-03-26T06:43:12.606Z,99.99
2023-03-26T06:44:12.609Z,99.99
2023-03-26T06:45:12.618Z,99.99
2023-03-26T06:46:12.577Z,99.99
2023-03-26T06:47:12.552Z,99.99
2023-03-26T06:48:12.542Z,99.99
2023-03-26T06:49:12.520Z,99.99
2023-03-26T06:50:12.519Z,99.99
2023-03-26T06:51:12.493Z,99.99
2023-03-26T06:52:12.492Z,99.99
2023-03-26T06:53:12.480Z,99.99
2023-03-26T06:54:12.454Z,99.99
2023-03-26T06:55:12.451Z,99.99
2023-03-26T06:56:12.435Z,99.99
2023-03-26T06:57:12.485Z,99.99
2023-03-26T06:58:12.416Z,99.99
2023-03-26T06:59:12.400Z,99.99
2023-03-26T07:00:12.380Z,99.99
2023-03-26T07:01:12.473Z,99.99
2023-03-26T07:02:12.367Z,99.99
2023-03-26T07:03:12.351Z,99.99
2023-03-26T07:04:12.377Z,99.99
2023-03-26T07:05:12.325Z,99.99
2023-03-26T07:06:12.304Z,99.99
2023-03-26T07:07:12.297Z,99.99
2023-03-26T07:08:12.283Z,99.99
2023-03-26T07:09:12.273Z,99.99
2023-03-26T07:10:12.264Z,99.99
2023-03-26T07:11:12.251Z,99.99
2023-03-26T07:12:12.242Z,99.99
2023-03-26T07:13:12.224Z,99.99
2023-03-26T07:14:12.211Z,99.99
2023-03-26T07:15:12.199Z,99.99
2023-03-26T07:16:12.192Z,99.99
2023-03-26T07:17:12.193Z,99.99
2023-03-26T07:18:12.161Z,99.99
2023-03-26T07:19:12.152Z,99.99
2023-03-26T07:20:12.142Z,99.99
2023-03-26T07:21:12.114Z,99.99
2023-03-26T07:22:12.166Z,99.99
2023-03-26T07:23:12.099Z,99.99
2023-03-26T07:24:12.083Z,99.99
2023-03-26T07:25:12.072Z,99.99
2023-03-26T07:26:12.079Z,99.99
2023-03-26T07:27:12.042Z,99.99
2023-03-26T07:28:12.034Z,99.99
2023-03-26T07:29:12.023Z,99.99
2023-03-26T07:30:12.016Z,99.99
2023-03-26T07:31:11.999Z,99.99
2023-03-26T07:32:11.973Z,99.99
2023-03-26T07:33:11.993Z,99.99
2023-03-26T07:34:12.056Z,99.99
2023-03-26T07:35:12.241Z,99.99
2023-03-26T07:36:11.926Z,99.99
2023-03-26T07:37:11.917Z,99.99
2023-03-26T07:38:11.896Z,99.99
2023-03-26T07:39:11.884Z,99.99
2023-03-26T07:40:11.879Z,99.99
2023-03-26T07:41:11.867Z,99.99
2023-03-26T07:42:11.851Z,99.99
2023-03-26T07:43:11.841Z,99.99
2023-03-26T07:44:11.838Z,99.99
2023-03-26T07:45:11.816Z,99.99
2023-03-26T07:46:11.819Z,99.99
2023-03-26T07:47:11.805Z,99.99
2023-03-26T07:48:11.768Z,99.99
2023-03-26T07:49:11.805Z,99.99
2023-03-26T07:50:11.760Z,99.99
2023-03-26T07:51:11.733Z,99.99
2023-03-26T07:52:11.714Z,99.99
2023-03-26T07:53:11.712Z,99.99
2023-03-26T07:54:11.699Z,99.99
2023-03-26T07:55:11.687Z,99.99
2023-03-26T07:56:11.753Z,99.99
2023-03-26T07:57:11.724Z,99.99
2023-03-26T07:58:11.668Z,99.99
2023-03-26T07:59:11.640Z,99.99
2023-03-26T08:00:11.620Z,99.99
2023-03-26T08:01:11.612Z,99.99
2023-03-26T08:02:11.598Z,99.99
2023-03-26T08:03:11.780Z,99.99
2023-03-26T08:04:24.041Z,99.99
2023-03-26T08:05:12.714Z,99.99
2023-03-26T08:06:11.546Z,99.99
2023-03-26T08:07:11.527Z,99.99
2023-03-26T08:08:11.512Z,99.99
2023-03-26T08:09:11.509Z,99.99
2023-03-26T08:10:11.497Z,99.99
2023-03-26T08:11:11.499Z,99.99
2023-03-26T08:12:11.470Z,99.99
2023-03-26T08:13:11.460Z,99.99
2023-03-26T08:14:11.444Z,99.99
2023-03-26T08:15:11.435Z,99.99
2023-03-26T08:16:11.472Z,99.99
2023-03-26T08:17:11.398Z,99.99
2023-03-26T08:18:11.424Z,99.99
2023-03-26T08:19:11.384Z,99.99
2023-03-26T08:20:11.368Z,99.99
2023-03-26T08:21:11.377Z,99.99
2023-03-26T08:22:11.331Z,99.99
2023-03-26T08:23:11.322Z,99.99
2023-03-26T08:24:11.317Z,99.99
2023-03-26T08:25:11.293Z,99.99
2023-03-26T08:26:11.307Z,99.99
2023-03-26T08:27:11.281Z,99.99
2023-03-26T08:28:11.255Z,99.99
2023-03-26T08:29:11.253Z,99.99
2023-03-26T08:30:11.229Z,99.99
2023-03-26T08:31:11.259Z,99.99
2023-03-26T08:32:11.203Z,99.99
2023-03-26T08:33:11.214Z,99.99
2023-03-26T08:34:11.179Z,99.99
2023-03-26T08:35:11.167Z,99.99
2023-03-26T08:36:11.164Z,99.99
2023-03-26T08:37:11.187Z,99.99
2023-03-26T08:38:11.141Z,99.99
2023-03-26T08:39:11.126Z,99.99
2023-03-26T08:40:11.104Z,99.99
2023-03-26T08:41:11.101Z,99.99
2023-03-26T08:42:11.080Z,99.99
2023-03-26T08:43:11.071Z,99.99
2023-03-26T08:44:11.057Z,99.99
2023-03-26T08:45:11.045Z,99.99
2023-03-26T08:46:11.109Z,99.99
2023-03-26T08:47:11.033Z,99.99
2023-03-26T08:48:11.002Z,99.99
2023-03-26T08:49:10.992Z,99.99
2023-03-26T08:50:10.993Z,99.99
2023-03-26T08:51:10.964Z,99.99
2023-03-26T08:52:10.963Z,99.99
2023-03-26T08:53:10.970Z,99.99
2023-03-26T08:54:10.932Z,99.99
2023-03-26T08:55:10.930Z,99.99
2023-03-26T08:56:10.915Z,99.99
2023-03-26T08:57:10.980Z,99.99
2023-03-26T08:58:10.890Z,99.99
2023-03-26T08:59:10.873Z,99.99
2023-03-26T09:00:10.868Z,99.99
2023-03-26T09:01:10.846Z,99.99
2023-03-26T09:02:10.901Z,99.99
2023-03-26T09:03:10.892Z,99.99
2023-03-26T09:04:10.861Z,99.99
2023-03-26T09:05:10.791Z,99.99
2023-03-26T09:06:10.774Z,99.99
2023-03-26T09:07:10.766Z,99.99
2023-03-26T09:08:10.744Z,99.99
2023-03-26T09:09:19.222Z,99.99
2023-03-26T09:10:11.762Z,99.99
2023-03-26T09:11:10.729Z,99.99
2023-03-26T09:12:10.699Z,99.99
2023-03-26T09:13:10.689Z,99.99
2023-03-26T09:14:10.673Z,99.99
2023-03-26T09:15:10.672Z,99.99
2023-03-26T09:16:10.689Z,99.99
2023-03-26T09:17:10.633Z,99.99
2023-03-26T09:18:10.643Z,99.99
2023-03-26T09:19:10.615Z,99.99
2023-03-26T09:20:10.609Z,99.99
2023-03-26T09:21:10.588Z,99.99
2023-03-26T09:22:10.572Z,99.99
2023-03-26T09:23:10.568Z,99.99
2023-03-26T09:24:10.544Z,99.99
2023-03-26T09:25:10.562Z,99.99
2023-03-26T09:26:10.526Z,99.99
2023-03-26T09:27:10.513Z,99.99
2023-03-26T09:28:10.501Z,99.99
2023-03-26T09:29:10.515Z,99.99
2023-03-26T09:30:10.485Z,99.99
2023-03-26T09:31:10.470Z,99.99
2023-03-26T09:32:10.461Z,99.99
2023-03-26T09:33:10.427Z,99.99
2023-03-26T09:34:10.417Z,99.99
2023-03-26T09:35:12.588Z,99.99
2023-03-26T09:36:10.397Z,99.99
2023-03-26T09:37:10.383Z,99.99
2023-03-26T09:38:10.375Z,99.99
2023-03-26T09:39:10.356Z,99.99
2023-03-26T09:40:10.354Z,99.99
2023-03-26T09:41:10.360Z,99.99
2023-03-26T09:42:10.333Z,99.99
2023-03-26T09:43:10.312Z,99.99
2023-03-26T09:44:10.298Z,99.99
2023-03-26T09:45:10.314Z,99.99
2023-03-26T09:46:10.292Z,99.99
2023-03-26T09:47:10.259Z,99.99
2023-03-26T09:48:10.250Z,99.99
2023-03-26T09:49:10.240Z,99.99
2023-03-26T09:50:10.221Z,99.99
2023-03-26T09:51:10.211Z,99.99
2023-03-26T09:52:10.190Z,99.99
2023-03-26T09:53:10.196Z,99.49
2023-03-26T09:54:10.170Z,99.44
2023-03-26T09:55:10.170Z,99.05
2023-03-26T09:56:10.135Z,98.79
2023-03-26T09:57:10.252Z,97.99
2023-03-26T09:58:10.178Z,95.06
2023-03-26T09:59:10.121Z,94.92
2023-03-26T10:00:10.092Z,94.98
2023-03-26T10:01:10.138Z,93.15
2023-03-26T10:02:10.071Z,91.93
2023-03-26T10:03:10.079Z,90.77
2023-03-26T10:04:10.045Z,88.20
2023-03-26T10:05:10.217Z,87.22
2023-03-26T10:06:10.018Z,87.94
2023-03-26T10:07:09.995Z,87.73
2023-03-26T10:08:09.983Z,89.72
2023-03-26T10:09:09.988Z,89.92
2023-03-26T10:10:09.979Z,88.53
2023-03-26T10:11:09.952Z,90.58
2023-03-26T10:12:09.951Z,91.09
2023-03-26T10:13:14.820Z,89.83
2023-03-26T10:14:09.917Z,89.92
2023-03-26T10:15:09.917Z,90.75
2023-03-26T10:16:09.881Z,88.49
2023-03-26T10:17:09.873Z,89.78
2023-03-26T10:18:28.108Z,89.12
2023-03-26T10:19:10.879Z,88.78
2023-03-26T10:20:09.911Z,86.53
2023-03-26T10:21:09.833Z,85.88
2023-03-26T10:22:09.820Z,86.55
2023-03-26T10:23:09.792Z,85.02
2023-03-26T10:24:09.785Z,84.14
2023-03-26T10:25:09.774Z,83.38
2023-03-26T10:26:09.760Z,83.38
2023-03-26T10:27:10.924Z,85.42
2023-03-26T10:28:09.724Z,83.22
2023-03-26T10:29:09.749Z,81.99
2023-03-26T10:30:09.713Z,83.52
2023-03-26T10:31:09.712Z,83.01
2023-03-26T10:32:09.685Z,83.15
2023-03-26T10:33:09.715Z,84.03
2023-03-26T10:34:09.656Z,84.24
2023-03-26T10:35:10.677Z,83.93
2023-03-26T10:36:09.629Z,85.42
2023-03-26T10:37:09.616Z,85.79
2023-03-26T10:38:09.599Z,86.61
2023-03-26T10:39:09.606Z,82.08
2023-03-26T10:40:09.607Z,79.05
2023-03-26T10:41:09.562Z,80.48
2023-03-26T10:42:09.542Z,82.01
2023-03-26T10:43:09.527Z,80.48
2023-03-26T10:44:09.527Z,78.23
2023-03-26T10:45:09.554Z,78.95
2023-03-26T10:46:09.527Z,78.64
2023-03-26T10:47:09.477Z,79.19
2023-03-26T10:48:09.472Z,78.38
2023-03-26T10:49:09.459Z,75.24
2023-03-26T10:50:09.498Z,78.68
2023-03-26T10:51:09.437Z,79.80
2023-03-26T10:52:09.423Z,79.77
2023-03-26T10:53:09.408Z,77.22
2023-03-26T10:54:09.403Z,76.19
2023-03-26T10:55:09.376Z,76.29
2023-03-26T10:56:09.372Z,75.68
2023-03-26T10:57:09.396Z,75.07
2023-03-26T10:58:09.345Z,74.76
2023-03-26T10:59:09.339Z,74.15
2023-03-26T11:00:09.324Z,74.52
2023-03-26T11:01:09.473Z,75.04
2023-03-26T11:02:09.288Z,71.67
2023-03-26T11:03:09.358Z,71.09
2023-03-26T11:04:09.274Z,72.11
2023-03-26T11:05:09.283Z,71.01
2023-03-26T11:06:09.242Z,70.54
2023-03-26T11:07:09.233Z,70.88
2023-03-26T11:08:09.223Z,72.21
2023-03-26T11:09:09.214Z,71.42
2023-03-26T11:10:09.203Z,70.20
2023-03-26T11:11:09.181Z,72.58
2023-03-26T11:12:27.018Z,72.89
2023-03-26T11:13:09.153Z,73.61
2023-03-26T11:14:09.151Z,72.52
2023-03-26T11:15:09.157Z,74.29
2023-03-26T11:16:09.164Z,75.01
2023-03-26T11:17:09.133Z,76.54
2023-03-26T11:18:09.125Z,76.17
2023-03-26T11:19:09.089Z,77.03
2023-03-26T11:20:09.070Z,79.52
2023-03-26T11:21:18.945Z,79.15
2023-03-26T11:22:10.074Z,79.91
2023-03-26T11:23:09.024Z,79.53
2023-03-26T11:24:09.028Z,79.98
2023-03-26T11:25:09.009Z,80.12
2023-03-26T11:26:09.014Z,83.20
2023-03-26T11:27:15.373Z,82.63
2023-03-26T11:28:10.553Z,84.07
2023-03-26T11:29:32.579Z,83.80
2023-03-26T11:30:08.947Z,85.14
2023-03-26T11:31:08.941Z,84.83
2023-03-26T11:32:08.935Z,84.52
2023-03-26T11:33:08.939Z,82.77
2023-03-26T11:34:08.900Z,84.62
2023-03-26T11:35:08.893Z,85.03
2023-03-26T11:36:08.894Z,84.72
2023-03-26T11:37:08.864Z,84.42
2023-03-26T11:38:08.852Z,83.94
2023-03-26T11:39:08.833Z,85.17
2023-03-26T11:40:08.807Z,86.00
2023-03-26T11:41:08.796Z,87.75
2023-03-26T11:42:08.800Z,87.75
2023-03-26T11:43:08.792Z,88.17
2023-03-26T11:44:08.775Z,89.81
2023-03-26T11:45:08.745Z,89.71
2023-03-26T11:46:08.756Z,88.23
2023-03-26T11:47:08.729Z,88.02
2023-03-26T11:48:08.733Z,87.71
2023-03-26T11:49:08.719Z,87.67
2023-03-26T11:50:08.689Z,86.54
2023-03-26T11:51:08.668Z,84.54
2023-03-26T11:52:08.652Z,86.15
2023-03-26T11:53:08.658Z,87.13
2023-03-26T11:54:08.643Z,88.74
2023-03-26T11:55:08.631Z,87.16
2023-03-26T11:56:08.599Z,84.66
2023-03-26T11:57:08.766Z,86.66
2023-03-26T11:58:09.754Z,85.91
2023-03-26T11:59:08.591Z,82.32
2023-03-26T12:00:08.567Z,79.55
2023-03-26T12:01:08.552Z,81.09
2023-03-26T12:02:08.554Z,81.40
2023-03-26T12:03:08.600Z,79.14
2023-03-26T12:04:08.541Z,80.41
2023-03-26T12:05:08.516Z,81.23
2023-03-26T12:06:08.493Z,82.46
2023-03-26T12:07:08.461Z,82.46
2023-03-26T12:08:08.453Z,82.67
2023-03-26T12:09:08.438Z,81.34
2023-03-26T12:10:18.019Z,80.78
2023-03-26T12:11:09.464Z,81.29
2023-03-26T12:12:08.396Z,80.37
2023-03-26T12:13:08.387Z,78.02
2023-03-26T12:14:08.366Z,74.32
2023-03-26T12:15:08.354Z,76.58
2023-03-26T12:16:08.389Z,72.92
2023-03-26T12:17:08.339Z,72.17
2023-03-26T12:18:08.312Z,74.53
2023-03-26T12:19:08.308Z,75.08
2023-03-26T12:20:08.292Z,73.27
2023-03-26T12:21:09.131Z,73.61
2023-03-26T12:22:08.282Z,76.79
2023-03-26T12:23:08.298Z,77.41
2023-03-26T12:24:08.238Z,78.20
2023-03-26T12:25:08.225Z,77.06
2023-03-26T12:26:08.208Z,76.65
2023-03-26T12:27:08.188Z,76.31
2023-03-26T12:28:08.193Z,75.56
2023-03-26T12:29:08.180Z,74.22
2023-03-26T12:30:08.172Z,76.07
2023-03-26T12:31:08.142Z,75.42
2023-03-26T12:32:08.161Z,74.98
2023-03-26T12:33:08.163Z,74.87
2023-03-26T12:34:08.187Z,75.45
2023-03-26T12:35:08.160Z,76.03
2023-03-26T12:36:08.227Z,74.87
2023-03-26T12:37:08.172Z,75.14
2023-03-26T12:38:08.099Z,76.50
2023-03-26T12:40:06.038Z,73.74
2023-03-26T12:40:13.169Z,71.25
2023-03-26T12:41:08.027Z,70.13
2023-03-26T12:44:43.637Z,69.21
2023-03-26T12:44:46.088Z,67.68
2023-03-26T12:44:53.578Z,69.21
2023-03-26T12:45:07.959Z,68.60
2023-03-26T12:47:56.337Z,68.49
2023-03-26T12:47:59.994Z,68.80
2023-03-26T12:48:09.027Z,70.00
2023-03-26T12:49:08.108Z,69.79
2023-03-26T12:50:07.955Z,66.93
2023-03-26T12:51:07.899Z,68.39
2023-03-26T12:52:09.344Z,67.71